Time;durP1;ratioP1;P1;durP2;ratioP2;P2;SDS_P1;SDS_P2;PMS_P1;PMS_P2;Temp;Humidity;BMP_temperature;BMP_pressure;BME280_temperature;BME280_humidity;BME280_pressure;Samples;Min_cycle;Max_cycle;Signal;HPM_P1;HPM_P2
2023/10/07 00:03:29;;;;;;;4.37;1.77;;;;;;;15.36;100.00;100324.38;4996069;56;1141070;-71
2023/10/07 00:08:35;;;;;;;5.75;2.90;;;;;;;15.40;100.00;100324.92;4977217;57;1141064;-71
2023/10/07 00:13:41;;;;;;;4.60;1.70;;;;;;;15.42;100.00;100334.44;4914299;59;1140802;-71
2023/10/07 00:18:48;;;;;;;6.40;2.13;;;;;;;15.41;100.00;100326.59;4933263;57;1140510;-71
2023/10/07 00:23:54;;;;;;;4.67;2.27;;;;;;;15.43;100.00;100327.25;4926766;58;1141032;-71
2023/10/07 00:29:02;;;;;;;6.50;2.77;;;;;;;15.44;100.00;100311.11;4911606;58;1140720;-71
2023/10/07 00:34:25;;;;;;;5.27;2.23;;;;;;;15.45;100.00;100305.28;4898096;58;1140757;-71
2023/10/07 00:39:31;;;;;;;2.12;1.80;;;;;;;15.47;100.00;100295.30;4956280;58;1141091;-71
2023/10/07 00:44:35;;;;;;;4.28;2.12;;;;;;;15.46;100.00;100297.63;4910557;58;1141130;-72
2023/10/07 01:05:27;;;;;;;5.87;2.80;;;;;;;15.44;100.00;100260.47;4825900;59;1140953;-71
2023/10/07 01:10:37;;;;;;;4.92;2.37;;;;;;;15.43;100.00;100258.80;4856346;59;1141177;-72
2023/10/07 01:15:40;;;;;;;4.77;2.33;;;;;;;15.41;100.00;100239.98;4855132;59;1140927;-71
2023/10/07 01:21:05;;;;;;;4.97;2.40;;;;;;;15.41;100.00;100223.98;4859937;58;1140984;-71
2023/10/07 01:25:59;;;;;;;1.80;1.70;;;;;;;15.42;100.00;100233.16;4925752;59;1140933;-70
2023/10/07 01:31:12;;;;;;;5.07;2.10;;;;;;;15.40;100.00;100230.31;4860985;59;1140940;-71
2023/10/07 01:36:27;;;;;;;10.30;2.67;;;;;;;15.42;100.00;100220.34;4757788;60;1141257;-72
2023/10/07 01:41:31;;;;;;;7.25;2.33;;;;;;;15.43;100.00;100213.48;4793898;59;1142816;-71
2023/10/07 01:46:39;;;;;;;4.95;2.20;;;;;;;15.46;100.00;100222.50;4834983;59;1140630;-72
2023/10/07 01:51:44;;;;;;;4.43;2.20;;;;;;;15.46;100.00;100222.50;4956861;57;1140904;-71
2023/10/07 01:56:56;;;;;;;13.73;3.03;;;;;;;15.46;100.00;100223.84;4932365;57;1140909;-71
2023/10/07 02:02:06;;;;;;;4.37;2.90;;;;;;;15.48;100.00;100203.69;4912607;58;1142942;-72
2023/10/07 02:07:08;;;;;;;5.27;1.93;;;;;;;15.51;100.00;100208.71;4913635;57;1140912;-71
2023/10/07 02:12:18;;;;;;;8.78;2.67;;;;;;;15.55;100.00;100203.91;4913321;57;1140868;-72
2023/10/07 02:17:25;;;;;;;4.47;2.40;;;;;;;15.58;100.00;100211.62;4931603;57;1140941;-72
2023/10/07 02:22:30;;;;;;;6.22;2.80;;;;;;;15.60;100.00;100209.61;4913926;56;1141195;-72
2023/10/07 02:27:41;;;;;;;5.22;2.80;;;;;;;15.61;100.00;100207.28;4968538;57;1141076;-70
2023/10/07 02:32:49;;;;;;;3.43;1.83;;;;;;;15.62;100.00;100197.80;5041580;57;1140723;-72
2023/10/07 02:37:57;;;;;;;6.53;2.33;;;;;;;15.60;100.00;100205.12;5019886;57;1140850;-72
2023/10/07 02:43:10;;;;;;;6.73;2.50;;;;;;;15.59;100.00;100195.45;4980571;57;1140696;-71
2023/10/07 02:48:18;;;;;;;4.22;2.25;;;;;;;15.57;100.00;100204.13;4974699;56;1140844;-71
2023/10/07 02:53:22;;;;;;;4.87;2.50;;;;;;;15.54;100.00;100196.91;5089245;56;1140728;-72
2023/10/07 02:58:49;;;;;;;5.72;2.42;;;;;;;15.49;100.00;100190.70;5041509;56;1140928;-72
2023/10/07 03:03:48;;;;;;;;;;;;;;;15.47;100.00;100190.03;5021346;57;1141023;-70
2023/10/07 03:08:56;;;;;;;7.17;2.73;;;;;;;15.44;100.00;100167.19;4975521;57;978152;-71
2023/10/07 03:13:57;;;;;;;6.87;2.73;;;;;;;15.44;100.00;100170.34;5026231;56;1138638;-71
2023/10/07 03:24:12;;;;;;;6.15;2.70;;;;;;;15.46;100.00;100172.36;5062004;56;1141098;-72
2023/10/07 03:29:30;;;;;;;6.33;2.70;;;;;;;15.40;100.00;100171.69;5045834;56;1140914;-71
2023/10/07 03:34:27;;;;;;;7.35;3.22;;;;;;;15.34;100.00;100145.16;5108106;56;1141258;-73
2023/10/07 03:44:56;;;;;;;4.35;2.65;;;;;;;15.27;100.00;100141.97;5129880;56;1140703;-72
2023/10/07 03:50:20;;;;;;;6.27;3.17;;;;;;;15.05;100.00;100145.49;4999048;57;1141021;-71
2023/10/07 03:55:14;;;;;;;5.03;2.72;;;;;;;15.05;100.00;100145.49;5025620;56;1140885;-71
2023/10/07 04:00:17;;;;;;;6.47;3.30;;;;;;;15.05;100.00;100139.33;4963758;57;1140883;-72
2023/10/07 04:05:31;;;;;;;7.93;2.90;;;;;;;15.05;100.00;100156.15;4996540;56;1140925;-73
2023/10/07 04:10:36;;;;;;;4.77;2.50;;;;;;;15.05;100.00;100154.81;4945965;57;1140787;-71
2023/10/07 04:15:51;;;;;;;5.37;2.92;;;;;;;15.05;100.00;100148.66;5018225;56;1140879;-72
2023/10/07 04:26:11;;;;;;;6.00;3.20;;;;;;;15.10;100.00;100134.38;4946184;57;1140825;-72
2023/10/07 04:31:29;;;;;;;5.47;2.80;;;;;;;15.12;100.00;100138.53;4949279;57;1140950;-72
2023/10/07 04:36:39;;;;;;;9.77;3.60;;;;;;;15.21;100.00;100132.77;5261741;54;46972;-71
2023/10/07 04:41:43;;;;;;;6.33;2.70;;;;;;;15.21;100.00;100135.44;5058676;55;1136799;-71
2023/10/07 04:47:04;;;;;;;4.70;3.07;;;;;;;15.23;100.00;100133.95;4979685;57;1140856;-70
2023/10/07 04:52:10;;;;;;;8.45;3.60;;;;;;;15.27;100.00;100125.98;4850189;57;1140979;-71
2023/10/07 04:57:29;;;;;;;11.53;3.37;;;;;;;15.30;100.00;100124.31;4997852;57;1140806;-71
2023/10/07 05:02:23;;;;;;;7.27;3.67;;;;;;;15.29;100.00;100117.31;4979425;56;1142761;-71
2023/10/07 05:07:31;;;;;;;7.00;3.65;;;;;;;15.31;100.00;100116.16;4951560;57;1140791;-70
2023/10/07 05:12:36;;;;;;;9.18;2.95;;;;;;;15.33;100.00;100122.17;4956900;57;1140999;-70
2023/10/07 05:17:42;;;;;;;9.40;3.45;;;;;;;15.33;100.00;100109.34;5058392;55;1141143;-71
2023/10/07 05:22:47;;;;;;;9.23;2.95;;;;;;;15.33;100.00;100110.18;5091144;55;1141138;-70
2023/10/07 05:27:55;;;;;;;5.73;2.83;;;;;;;15.32;100.00;100115.66;5056701;56;1140930;-70
2023/10/07 05:33:08;;;;;;;14.47;7.57;;;;;;;15.32;100.00;100117.83;5045208;55;1140910;-71
2023/10/07 05:38:09;;;;;;;10.30;3.93;;;;;;;15.34;100.00;100113.68;5083175;56;1143408;-71
2023/10/07 05:43:16;;;;;;;9.10;3.77;;;;;;;15.37;100.00;100115.53;5064475;56;1142947;-71
2023/10/07 05:48:23;;;;;;;11.77;3.73;;;;;;;15.40;100.00;100125.88;5064447;56;1141251;-72
2023/10/07 05:53:29;;;;;;;8.20;3.80;;;;;;;15.41;100.00;100125.39;5086520;56;1142949;-73
2023/10/07 05:58:37;;;;;;;8.07;3.80;;;;;;;15.44;100.00;100133.03;5139924;56;1141244;-73
2023/10/07 06:03:43;;;;;;;9.80;3.66;;;;;;;15.48;100.00;100153.05;5122853;55;1141279;-72
2023/10/07 06:08:48;;;;;;;6.70;2.90;;;;;;;15.51;100.00;100149.23;5119759;56;1258648;-71
2023/10/07 06:13:55;;;;;;;9.47;3.87;;;;;;;15.54;100.00;100172.42;5113982;55;1140881;-73
2023/10/07 06:19:03;;;;;;;7.83;3.87;;;;;;;15.51;100.00;100138.58;5033710;56;1140819;-71
2023/10/07 06:24:13;;;;;;;6.17;2.80;;;;;;;15.51;100.00;100171.40;5121660;56;1141154;-71
2023/10/07 06:29:19;;;;;;;8.35;2.67;;;;;;;15.52;100.00;100185.06;5156810;56;1141033;-73
2023/10/07 06:34:32;;;;;;;7.37;3.50;;;;;;;15.48;100.00;100172.55;5092700;56;1140827;-74
2023/10/07 06:39:35;;;;;;;7.72;3.55;;;;;;;15.51;100.00;100174.56;5106476;56;1141104;-71
2023/10/07 06:44:41;;;;;;;7.47;2.37;;;;;;;15.61;100.00;100192.13;5123245;56;1141047;-75
2023/10/07 06:49:49;;;;;;;7.60;3.03;;;;;;;15.69;100.00;100197.52;5091599;55;1141021;-75
2023/10/07 06:54:56;;;;;;;6.67;3.10;;;;;;;15.47;100.00;100199.36;5039922;56;1140959;-74
2023/10/07 07:00:08;;;;;;;8.57;3.30;;;;;;;15.47;100.00;100199.36;5036235;56;1141254;-74
2023/10/07 07:05:14;;;;;;;8.63;3.80;;;;;;;15.31;100.00;100208.58;5059783;56;1141128;-73
2023/10/07 07:10:16;;;;;;;5.87;3.80;;;;;;;15.18;100.00;100218.82;5037264;56;1140898;-72
2023/10/07 07:15:28;;;;;;;4.77;3.97;;;;;;;15.08;100.00;100222.44;5040290;56;1140893;-74
2023/10/07 07:20:48;;;;;;;9.70;3.70;;;;;;;15.02;100.00;100235.02;5061671;55;1141256;-73
2023/10/07 07:25:49;;;;;;;7.40;3.57;;;;;;;15.00;100.00;100250.31;5043994;55;1141005;-71
2023/10/07 07:30:57;;;;;;;8.80;5.20;;;;;;;14.96;100.00;100263.63;5086172;55;1141327;-72
2023/10/07 07:35:58;;;;;;;7.97;4.90;;;;;;;14.96;100.00;100262.78;5084204;55;1140960;-72
2023/10/07 07:41:26;;;;;;;4.40;2.87;;;;;;;14.96;100.00;100280.93;5038288;56;1140896;-73
2023/10/07 07:46:18;;;;;;;2.45;1.12;;;;;;;14.96;100.00;100282.27;5030289;56;1141181;-74
2023/10/07 07:51:27;;;;;;;0.90;0.80;;;;;;;14.81;100.00;100285.61;5086761;55;1140997;-72
2023/10/07 07:56:32;;;;;;;1.30;0.70;;;;;;;14.65;100.00;100298.27;5126511;55;1140769;-72
2023/10/07 08:01:53;;;;;;;2.00;0.60;;;;;;;14.50;100.00;100297.10;5121861;55;1140848;-73
2023/10/07 08:06:55;;;;;;;1.83;0.83;;;;;;;14.38;100.00;100311.88;5140145;55;1141122;-73
2023/10/07 08:12:00;;;;;;;0.33;0.33;;;;;;;14.29;100.00;100306.13;5119341;55;1141141;-72
2023/10/07 08:17:09;;;;;;;1.17;0.60;;;;;;;14.24;100.00;100321.69;5126764;55;1141034;-72
2023/10/07 08:22:18;;;;;;;2.00;0.87;;;;;;;14.21;100.00;100299.37;5144700;55;1141055;-73
2023/10/07 08:32:48;;;;;;;1.62;0.72;;;;;;;14.31;100.00;100302.84;5111772;55;1140899;-72
2023/10/07 08:37:52;;;;;;;1.00;0.50;;;;;;;14.41;100.00;100324.93;5126067;55;1141249;-73
2023/10/07 08:42:59;;;;;;;3.02;1.10;;;;;;;14.46;100.00;100314.34;5120398;55;1141032;-73
2023/10/07 08:48:15;;;;;;;1.17;0.53;;;;;;;14.49;100.00;100316.72;5076979;55;1141250;-73
2023/10/07 08:53:23;;;;;;;2.58;0.90;;;;;;;14.53;100.00;100328.71;5126501;55;1141153;-73
2023/10/07 08:58:27;;;;;;;3.80;0.76;;;;;;;14.55;100.00;100328.07;5152852;55;1140845;-72
2023/10/07 09:03:33;;;;;;;2.00;1.03;;;;;;;14.53;100.00;100317.57;5138926;55;1255470;-72
2023/10/07 09:43:51;;;;;;;2.57;1.00;;;;;;;14.40;100.00;100328.58;5230746;54;46743;-71
2023/10/07 09:49:00;;;;;;;2.30;0.80;;;;;;;14.46;100.00;100336.47;4971561;56;1136579;-72
2023/10/07 09:54:47;;;;;;;1.53;0.90;;;;;;;14.56;100.00;100329.25;4953177;57;1140861;-71
2023/10/07 10:05:57;;;;;;;7.17;1.30;;;;;;;14.75;100.00;100324.31;5005792;56;1141142;-72
2023/10/07 10:11:19;;;;;;;1.57;0.80;;;;;;;14.82;100.00;100339.20;5005397;56;1141009;-72
2023/10/07 10:16:19;;;;;;;8.07;2.83;;;;;;;14.88;100.00;100346.08;5020158;57;1140803;-73
2023/10/07 10:21:30;;;;;;;4.80;2.13;;;;;;;14.95;100.00;100341.00;5108049;56;1140611;-72
2023/10/07 10:26:34;;;;;;;3.60;1.10;;;;;;;14.98;100.00;100334.85;5051569;56;1141087;-71
2023/10/07 10:31:43;;;;;;;5.83;1.57;;;;;;;15.04;100.00;100328.93;5058046;56;1140933;-71
2023/10/07 10:36:50;;;;;;;5.00;1.40;;;;;;;15.08;100.00;100336.13;5037603;56;1141096;-71
2023/10/07 10:41:56;;;;;;;5.87;1.93;;;;;;;15.07;100.00;100332.63;4987978;56;1141025;-73
2023/10/07 10:47:02;;;;;;;7.03;1.63;;;;;;;15.06;100.00;100347.42;4849302;59;1141014;-71
2023/10/07 10:52:08;;;;;;;5.53;1.80;;;;;;;15.05;100.00;100357.73;4895930;57;1140970;-72
2023/10/07 10:57:19;;;;;;;5.83;1.77;;;;;;;15.04;100.00;100363.55;4959852;56;1140874;-71
2023/10/07 11:02:21;;;;;;;6.95;1.50;;;;;;;15.04;100.00;100364.05;4964893;56;1141186;-72
2023/10/07 11:07:27;;;;;;;6.33;1.40;;;;;;;14.91;100.00;100361.77;4983613;55;1140924;-72
2023/10/07 11:12:33;;;;;;;3.90;1.30;;;;;;;14.81;100.00;100374.80;4955491;57;1140990;-73
2023/10/07 11:17:58;;;;;;;5.37;1.62;;;;;;;14.74;100.00;100383.37;4947242;57;1141039;-73
2023/10/07 11:23:06;;;;;;;6.67;2.30;;;;;;;14.72;100.00;100385.84;4973755;57;1141104;-72
2023/10/07 11:28:15;;;;;;;4.30;2.47;;;;;;;14.69;100.00;100390.13;4955451;57;1140973;-72
2023/10/07 11:33:20;;;;;;;8.30;2.33;;;;;;;14.65;100.00;100383.44;5020825;56;1141104;-72
2023/10/07 11:38:25;;;;;;;11.43;2.83;;;;;;;14.60;100.00;100387.03;4973649;56;1141148;-72
2023/10/07 11:43:31;;;;;;;7.43;2.90;;;;;;;14.54;100.00;100395.59;4974431;56;1261886;-72
2023/10/07 11:48:39;;;;;;;7.67;2.20;;;;;;;14.49;100.00;100379.25;4957987;57;1140814;-68
